Time;durP1;ratioP1;P1;durP2;ratioP2;P2;SDS_P1;SDS_P2;PMS_P1;PMS_P2;Temp;Humidity;BMP_temperature;BMP_pressure;BME280_temperature;BME280_humidity;BME280_pressure;Samples;Min_cycle;Max_cycle;Signal;HPM_P1;HPM_P2
2021/12/27 00:01:21;;;;;;;27.63;14.07;;;2.50;99.90;;;;;;4923735;29;20611;-87
2021/12/27 00:03:50;;;;;;;25.40;14.00;;;2.50;99.90;;;;;;4916552;29;20600;-86
2021/12/27 00:06:18;;;;;;;26.17;14.83;;;2.50;99.90;;;;;;4923707;29;20239;-87
2021/12/27 00:08:45;;;;;;;30.07;14.57;;;2.60;99.90;;;;;;4918037;29;20282;-87
2021/12/27 00:11:13;;;;;;;25.67;14.03;;;2.50;99.90;;;;;;4926120;29;20208;-85
2021/12/27 00:13:42;;;;;;;27.37;13.67;;;2.60;99.90;;;;;;4933791;29;20254;-87
2021/12/27 00:16:10;;;;;;;29.23;15.20;;;2.60;99.90;;;;;;4925042;29;20262;-86
2021/12/27 00:18:37;;;;;;;24.17;13.47;;;2.60;99.90;;;;;;4922418;29;20238;-85
2021/12/27 00:21:05;;;;;;;27.70;14.03;;;2.50;99.90;;;;;;4920128;29;20312;-85
2021/12/27 00:23:33;;;;;;;24.63;14.67;;;2.60;99.90;;;;;;4916858;29;20283;-87
2021/12/27 00:26:00;;;;;;;28.77;15.17;;;2.60;99.90;;;;;;4932177;29;20230;-86
2021/12/27 00:28:30;;;;;;;28.47;14.73;;;2.60;99.90;;;;;;4933261;29;20242;-85
2021/12/27 00:30:58;;;;;;;28.80;14.43;;;2.60;99.90;;;;;;4933552;29;20213;-86
2021/12/27 00:33:25;;;;;;;26.40;14.17;;;2.60;99.90;;;;;;4934665;29;20216;-86
2021/12/27 00:35:52;;;;;;;29.70;14.87;;;2.60;99.90;;;;;;4937049;29;20219;-86
2021/12/27 00:38:19;;;;;;;29.87;15.20;;;2.60;99.90;;;;;;4924515;29;20652;-86
2021/12/27 00:40:47;;;;;;;24.97;14.10;;;2.60;99.90;;;;;;4937367;29;20211;-87
2021/12/27 00:43:16;;;;;;;27.43;14.97;;;2.70;99.90;;;;;;4939069;29;20669;-87
2021/12/27 00:45:43;;;;;;;30.10;14.87;;;2.60;99.90;;;;;;4935037;29;20218;-86
2021/12/27 00:48:10;;;;;;;28.43;14.60;;;2.60;99.90;;;;;;4923990;29;20504;-86
2021/12/27 00:50:42;;;;;;;26.37;14.30;;;2.50;99.90;;;;;;4915969;29;20266;-86
2021/12/27 00:53:09;;;;;;;30.43;16.23;;;2.60;99.90;;;;;;4923199;29;20215;-87
2021/12/27 00:55:38;;;;;;;29.13;15.27;;;2.60;99.90;;;;;;4928251;29;20302;-87
2021/12/27 00:58:08;;;;;;;30.30;15.33;;;2.60;99.90;;;;;;4920415;28;20293;-87
2021/12/27 01:00:39;;;;;;;27.77;14.87;;;2.50;99.90;;;;;;4917605;29;20215;-86
2021/12/27 01:03:14;;;;;;;29.00;14.60;;;2.50;99.90;;;;;;4918596;29;20207;-88
2021/12/27 01:05:43;;;;;;;29.87;15.23;;;2.50;99.90;;;;;;4916874;29;20231;-86
2021/12/27 01:08:10;;;;;;;30.30;16.67;;;2.50;99.90;;;;;;4931345;29;20211;-86
2021/12/27 01:13:21;;;;;;;27.77;15.83;;;2.60;99.90;;;;;;4929103;29;20245;-86
2021/12/27 01:18:52;;;;;;;28.47;15.17;;;2.60;99.90;;;;;;4905025;29;20294;-88
2021/12/27 01:21:22;;;;;;;27.03;15.07;;;2.50;99.90;;;;;;4927398;29;20219;-88
2021/12/27 01:23:54;;;;;;;30.77;14.87;;;2.60;99.90;;;;;;4933641;29;20306;-87
2021/12/27 01:26:22;;;;;;;33.60;16.23;;;2.70;99.90;;;;;;4933972;29;20229;-87
2021/12/27 01:28:49;;;;;;;33.63;16.50;;;2.60;99.90;;;;;;4915303;29;20216;-88
2021/12/27 01:31:17;;;;;;;34.93;16.63;;;2.60;99.90;;;;;;4917688;29;20210;-87
2021/12/27 01:33:46;;;;;;;35.07;16.67;;;2.60;99.90;;;;;;4916630;29;20215;-85
2021/12/27 01:36:14;;;;;;;32.20;15.83;;;2.60;99.90;;;;;;4926171;29;20275;-85
2021/12/27 01:38:41;;;;;;;35.63;16.77;;;2.50;99.90;;;;;;4922610;29;20238;-87
2021/12/27 01:41:15;;;;;;;31.57;16.23;;;2.50;99.90;;;;;;4916812;29;20301;-86
2021/12/27 01:43:46;;;;;;;33.27;16.40;;;2.50;99.90;;;;;;4928513;29;20243;-86
2021/12/27 01:46:20;;;;;;;29.87;15.73;;;2.50;99.90;;;;;;4933671;29;20223;-86
2021/12/27 01:48:55;;;;;;;32.70;17.37;;;2.50;99.90;;;;;;4939883;29;20225;-88
2021/12/27 01:51:30;;;;;;;32.30;16.90;;;2.50;99.90;;;;;;4945811;29;20215;-87
2021/12/27 01:53:58;;;;;;;29.27;15.93;;;2.40;99.90;;;;;;4925568;29;20262;-89
2021/12/27 01:56:25;;;;;;;35.87;17.07;;;2.50;99.90;;;;;;4939952;29;20218;-87
2021/12/27 01:58:54;;;;;;;32.03;16.50;;;2.50;99.90;;;;;;4934308;29;20247;-86
2021/12/27 02:01:22;;;;;;;32.90;16.33;;;2.50;99.90;;;;;;4931845;29;20314;-85
2021/12/27 02:03:51;;;;;;;34.30;17.47;;;2.50;99.90;;;;;;4935401;29;20238;-87
2021/12/27 02:06:18;;;;;;;38.57;17.70;;;2.50;99.90;;;;;;4942582;29;20222;-86
2021/12/27 02:08:49;;;;;;;33.67;16.77;;;2.50;99.90;;;;;;4945189;29;20186;-86
2021/12/27 02:11:17;;;;;;;34.97;16.27;;;2.50;99.90;;;;;;4947756;29;20198;-87
2021/12/27 02:13:46;;;;;;;32.07;17.20;;;2.40;99.90;;;;;;4953558;29;20265;-85
2021/12/27 02:16:15;;;;;;;35.53;16.80;;;2.50;99.90;;;;;;4953356;29;20201;-87
2021/12/27 02:18:44;;;;;;;35.33;17.63;;;2.50;99.90;;;;;;4950269;29;20228;-86
2021/12/27 02:21:12;;;;;;;29.30;16.17;;;2.50;99.90;;;;;;4948704;29;20230;-86
2021/12/27 02:23:41;;;;;;;33.30;17.20;;;2.60;99.90;;;;;;4941741;29;20215;-86
2021/12/27 02:26:08;;;;;;;35.80;17.60;;;2.60;99.90;;;;;;4923349;29;20262;-85
2021/12/27 02:28:37;;;;;;;34.10;17.00;;;2.60;99.90;;;;;;4934579;29;20767;-86
2021/12/27 02:31:05;;;;;;;33.53;17.17;;;2.60;99.90;;;;;;4929167;29;20684;-88
2021/12/27 02:33:42;;;;;;;34.50;16.80;;;2.60;99.90;;;;;;4929836;29;20212;-85
2021/12/27 02:36:11;;;;;;;37.27;16.97;;;2.70;99.90;;;;;;4929822;29;20316;-83
2021/12/27 02:38:41;;;;;;;37.53;16.50;;;2.90;99.90;;;;;;4915435;29;20279;-85
2021/12/27 02:41:10;;;;;;;34.73;16.90;;;2.90;99.90;;;;;;4926486;29;20216;-85
2021/12/27 02:43:39;;;;;;;31.53;16.37;;;2.70;99.90;;;;;;4915902;29;20212;-86
2021/12/27 02:46:09;;;;;;;34.77;16.30;;;2.70;99.90;;;;;;4923236;29;20243;-85
2021/12/27 02:48:39;;;;;;;31.70;16.97;;;2.70;99.90;;;;;;4919225;29;20274;-86
2021/12/27 02:51:08;;;;;;;34.67;16.93;;;2.70;99.90;;;;;;4930094;29;20236;-85
2021/12/27 02:53:37;;;;;;;29.40;16.23;;;2.70;99.90;;;;;;4927675;29;20207;-87
2021/12/27 02:56:06;;;;;;;32.77;16.60;;;2.70;99.90;;;;;;4933427;29;20663;-86
2021/12/27 02:58:34;;;;;;;33.23;16.63;;;2.70;99.90;;;;;;4911865;29;20702;-85
2021/12/27 03:01:06;;;;;;;32.93;16.00;;;2.70;99.90;;;;;;4921942;29;20220;-85
2021/12/27 03:03:37;;;;;;;34.00;16.90;;;2.70;99.90;;;;;;4922733;29;20267;-87
2021/12/27 03:06:06;;;;;;;31.00;16.80;;;2.70;99.90;;;;;;4911309;29;20761;-86
2021/12/27 03:08:33;;;;;;;34.13;16.93;;;2.70;99.90;;;;;;4921711;29;20251;-86
2021/12/27 03:11:01;;;;;;;35.30;16.37;;;2.80;99.90;;;;;;4922023;29;20279;-86
2021/12/27 03:13:35;;;;;;;36.57;16.17;;;2.70;99.90;;;;;;4914048;29;20218;-85
2021/12/27 03:16:09;;;;;;;33.87;16.90;;;2.80;99.90;;;;;;4928091;29;20227;-84
2021/12/27 03:18:46;;;;;;;35.67;16.77;;;2.80;99.90;;;;;;4914970;29;20243;-85
2021/12/27 03:21:15;;;;;;;35.93;16.60;;;2.80;99.90;;;;;;4919441;29;20314;-87
2021/12/27 03:23:44;;;;;;;36.43;17.57;;;2.80;99.90;;;;;;4921419;29;20216;-85
2021/12/27 03:26:14;;;;;;;36.53;16.80;;;2.80;99.90;;;;;;4914897;29;20708;-85
2021/12/27 03:28:44;;;;;;;34.97;17.53;;;2.80;99.90;;;;;;4914548;29;20242;-83
2021/12/27 03:31:11;;;;;;;40.13;17.27;;;2.80;99.90;;;;;;4922601;29;20220;-85
2021/12/27 03:33:39;;;;;;;36.13;16.83;;;2.90;99.90;;;;;;4920657;29;20246;-85
2021/12/27 03:36:08;;;;;;;36.40;17.20;;;2.80;99.90;;;;;;4918766;29;20314;-84
2021/12/27 03:38:44;;;;;;;40.53;17.70;;;2.80;99.90;;;;;;4925328;29;20241;-85
2021/12/27 03:41:15;;;;;;;47.70;19.03;;;2.80;99.90;;;;;;4926387;29;20732;-86
2021/12/27 03:43:42;;;;;;;39.63;18.37;;;2.80;99.90;;;;;;4925023;29;20536;-84
2021/12/27 03:46:10;;;;;;;36.57;17.53;;;2.80;99.90;;;;;;4926586;29;20242;-88
2021/12/27 03:48:38;;;;;;;33.93;16.50;;;2.80;99.90;;;;;;4924039;29;20692;-85
2021/12/27 03:51:13;;;;;;;44.07;18.53;;;2.60;99.90;;;;;;4923785;29;20617;-84
2021/12/27 03:53:40;;;;;;;41.67;18.90;;;2.70;99.90;;;;;;4920827;29;20223;-85
2021/12/27 03:56:08;;;;;;;37.10;17.67;;;2.80;99.90;;;;;;4909942;29;20231;-86
2021/12/27 03:58:54;;;;;;;50.57;18.63;;;2.80;99.90;;;;;;4914964;29;20740;-86
2021/12/27 04:01:26;;;;;;;45.30;18.10;;;2.80;99.90;;;;;;4916508;29;20313;-88
2021/12/27 04:03:55;;;;;;;47.23;19.33;;;2.80;99.90;;;;;;4925473;29;20196;-88
2021/12/27 04:06:25;;;;;;;40.17;18.70;;;2.90;99.90;;;;;;4923355;29;20208;-85
2021/12/27 04:08:55;;;;;;;44.80;19.77;;;2.80;99.90;;;;;;4925491;29;20603;-86
2021/12/27 04:11:22;;;;;;;39.40;19.07;;;2.90;99.90;;;;;;4920933;29;20218;-86
2021/12/27 04:13:49;;;;;;;46.80;19.00;;;2.90;99.90;;;;;;4922136;29;20635;-86
2021/12/27 04:16:16;;;;;;;45.83;18.87;;;3.30;99.90;;;;;;4920611;29;20592;-84
2021/12/27 04:18:43;;;;;;;44.50;18.63;;;2.90;99.90;;;;;;4921510;29;20351;-86
2021/12/27 04:21:10;;;;;;;46.47;19.10;;;2.20;99.90;;;;;;4922735;29;21246;-83
2021/12/27 04:23:37;;;;;;;55.67;19.03;;;3.50;99.90;;;;;;4927117;29;20251;-86
2021/12/27 04:26:04;;;;;;;53.87;21.00;;;3.20;99.90;;;;;;4918490;29;20319;-85
2021/12/27 04:28:31;;;;;;;54.50;21.03;;;4.30;99.90;;;;;;4918570;29;20220;-86
2021/12/27 04:30:58;;;;;;;59.40;19.20;;;3.00;99.90;;;;;;4921761;29;20650;-86
2021/12/27 04:33:25;;;;;;;46.20;19.73;;;3.00;99.90;;;;;;4918661;29;20769;-86
2021/12/27 04:35:52;;;;;;;49.93;19.50;;;2.90;99.90;;;;;;4918415;29;20227;-85
2021/12/27 04:38:19;;;;;;;60.53;21.80;;;3.00;99.90;;;;;;4919241;29;20283;-85
2021/12/27 04:40:50;;;;;;;54.33;20.93;;;3.00;99.90;;;;;;4920068;29;20244;-85
2021/12/27 04:43:21;;;;;;;54.60;21.53;;;3.00;99.90;;;;;;4922533;29;20213;-86
2021/12/27 04:45:49;;;;;;;54.90;20.97;;;3.00;99.90;;;;;;4920616;29;20276;-86
2021/12/27 04:48:21;;;;;;;60.03;21.60;;;3.00;99.90;;;;;;4920744;29;20213;-86
2021/12/27 04:50:49;;;;;;;56.77;20.90;;;3.00;99.90;;;;;;4914322;29;20219;-87
2021/12/27 04:53:18;;;;;;;63.83;20.70;;;3.00;99.90;;;;;;4919817;29;20775;-85
2021/12/27 04:55:45;;;;;;;67.73;21.00;;;3.00;99.90;;;;;;4929770;29;20212;-88
2021/12/27 04:58:16;;;;;;;57.63;21.23;;;3.00;99.90;;;;;;4925856;29;20737;-85
2021/12/27 05:00:46;;;;;;;68.63;23.27;;;4.60;99.90;;;;;;4920739;29;20280;-87
2021/12/27 05:03:13;;;;;;;65.73;22.53;;;3.30;99.90;;;;;;4921128;29;20235;-86
2021/12/27 05:05:45;;;;;;;71.27;22.20;;;3.80;99.90;;;;;;4922339;29;20705;-86
2021/12/27 05:08:14;;;;;;;66.77;22.83;;;2.30;99.90;;;;;;4912068;29;20212;-85
2021/12/27 05:10:44;;;;;;;63.03;23.03;;;3.10;99.90;;;;;;4922542;29;20228;-85
2021/12/27 05:13:12;;;;;;;72.70;21.57;;;3.10;99.90;;;;;;4911038;29;20690;-87
2021/12/27 05:15:39;;;;;;;59.87;22.20;;;2.80;99.90;;;;;;4914632;29;20299;-86
2021/12/27 05:18:07;;;;;;;74.03;22.50;;;3.10;99.90;;;;;;4923740;29;20209;-85
2021/12/27 05:20:34;;;;;;;62.53;22.03;;;3.10;99.90;;;;;;4924185;29;20338;-84
2021/12/27 05:23:01;;;;;;;66.83;22.03;;;3.10;99.90;;;;;;4928663;29;20220;-85
2021/12/27 05:25:27;;;;;;;67.47;22.00;;;3.10;99.90;;;;;;4920015;29;20692;-85
2021/12/27 05:27:54;;;;;;;69.60;22.57;;;3.10;99.90;;;;;;4918917;29;20215;-85
2021/12/27 05:30:23;;;;;;;74.00;23.37;;;3.20;99.90;;;;;;4923687;29;20365;-87
2021/12/27 05:32:50;;;;;;;66.93;22.40;;;3.10;99.90;;;;;;4924040;29;20249;-84
2021/12/27 05:35:17;;;;;;;81.57;23.10;;;3.20;99.90;;;;;;4928715;29;20331;-86
2021/12/27 05:37:46;;;;;;;70.47;23.90;;;3.20;99.90;;;;;;4912089;29;20461;-91
2021/12/27 05:40:22;;;;;;;77.73;23.43;;;3.30;99.90;;;;;;4935003;29;20253;-89
2021/12/27 05:42:56;;;;;;;66.57;23.43;;;3.50;99.90;;;;;;4923761;29;20730;-90
2021/12/27 05:45:24;;;;;;;85.97;23.47;;;3.20;99.90;;;;;;4918871;29;20314;-91
2021/12/27 05:47:54;;;;;;;74.67;24.03;;;3.50;99.90;;;;;;4937961;29;20214;-91
2021/12/27 05:50:26;;;;;;;69.33;22.77;;;3.30;99.90;;;;;;4920818;29;20243;-93
2021/12/27 05:52:55;;;;;;;87.30;23.37;;;3.60;99.90;;;;;;4932739;29;20214;-91
2021/12/27 05:55:31;;;;;;;77.83;23.13;;;3.30;99.90;;;;;;4920830;29;20211;-92
2021/12/27 05:57:58;;;;;;;78.73;22.27;;;3.10;99.90;;;;;;4927040;29;20222;-92
2021/12/27 06:00:26;;;;;;;73.67;21.87;;;3.30;99.90;;;;;;4937613;29;20910;-93
2021/12/27 06:03:02;;;;;;;73.57;23.37;;;3.30;99.90;;;;;;4924671;29;20205;-91
2021/12/27 06:05:40;;;;;;;68.17;23.70;;;3.50;99.90;;;;;;4917370;29;20580;-91
2021/12/27 06:08:44;;;;;;;75.67;22.73;;;3.40;99.90;;;;;;4917184;29;20719;-90
2021/12/27 06:11:12;;;;;;;63.90;22.43;;;3.40;99.90;;;;;;4928986;29;20213;-91
2021/12/27 06:13:39;;;;;;;78.63;22.80;;;3.40;99.90;;;;;;4925120;29;20207;-91
2021/12/27 06:16:17;;;;;;;63.47;23.17;;;3.40;99.90;;;;;;4924321;29;20670;-89
2021/12/27 06:18:55;;;;;;;76.93;22.33;;;3.40;99.90;;;;;;4916823;29;20220;-89
2021/12/27 06:21:25;;;;;;;62.33;21.90;;;3.40;99.90;;;;;;4934680;29;20215;-92
2021/12/27 06:23:56;;;;;;;61.00;21.30;;;3.40;99.90;;;;;;4920715;29;20211;-92
2021/12/27 06:26:23;;;;;;;68.23;22.53;;;3.50;99.90;;;;;;4920470;29;20223;-90
2021/12/27 06:28:53;;;;;;;66.83;21.53;;;3.40;99.90;;;;;;4918010;29;20209;-91
2021/12/27 06:31:25;;;;;;;69.47;22.27;;;3.50;99.90;;;;;;4918132;29;20329;-90
2021/12/27 06:34:08;;;;;;;68.13;23.23;;;3.40;99.90;;;;;;4914551;29;20211;-91
2021/12/27 06:36:53;;;;;;;88.33;23.80;;;3.50;99.90;;;;;;4913401;29;20709;-90
2021/12/27 06:39:31;;;;;;;69.63;22.17;;;3.50;99.90;;;;;;4918326;29;20243;-91
2021/12/27 06:41:59;;;;;;;74.47;23.73;;;3.60;99.90;;;;;;4917944;29;20222;-89
2021/12/27 06:44:31;;;;;;;86.80;24.53;;;3.50;99.90;;;;;;4935359;29;20698;-89
2021/12/27 06:47:01;;;;;;;75.87;24.23;;;3.50;99.90;;;;;;4924491;29;20596;-89
2021/12/27 06:49:34;;;;;;;77.37;25.53;;;3.50;99.90;;;;;;4924243;29;20251;-89
2021/12/27 06:52:01;;;;;;;88.27;26.03;;;3.60;99.90;;;;;;4919133;29;20223;-89
2021/12/27 06:54:31;;;;;;;81.60;25.97;;;3.60;99.90;;;;;;4932497;29;20205;-89
2021/12/27 06:57:00;;;;;;;84.23;24.57;;;3.60;99.90;;;;;;4920134;29;20311;-90
2021/12/27 06:59:32;;;;;;;79.70;26.17;;;3.60;99.90;;;;;;4915307;29;20241;-89
2021/12/27 07:02:07;;;;;;;84.13;24.87;;;3.60;99.90;;;;;;4922788;29;20320;-89
2021/12/27 07:04:37;;;;;;;73.33;26.23;;;3.60;99.90;;;;;;4923132;29;20200;-89
2021/12/27 07:07:13;;;;;;;75.07;23.87;;;3.70;99.90;;;;;;4923396;29;20269;-89
2021/12/27 07:09:45;;;;;;;74.10;25.23;;;3.70;99.90;;;;;;4923290;29;20208;-91
2021/12/27 07:12:16;;;;;;;80.63;23.97;;;3.70;99.90;;;;;;4923072;29;20964;-90
2021/12/27 07:14:54;;;;;;;78.07;25.47;;;3.70;99.90;;;;;;4909398;29;20670;-89
2021/12/27 07:17:21;;;;;;;83.60;25.63;;;3.70;99.90;;;;;;4922644;29;20950;-90
2021/12/27 07:19:48;;;;;;;89.07;26.57;;;3.70;99.90;;;;;;4922208;29;20221;-89
2021/12/27 07:22:31;;;;;;;80.83;25.27;;;3.80;99.90;;;;;;4923148;29;20201;-90
2021/12/27 07:25:17;;;;;;;82.33;23.87;;;3.80;99.90;;;;;;4922644;29;20292;-89
2021/12/27 07:27:53;;;;;;;76.43;24.60;;;3.80;99.90;;;;;;4937830;29;20697;-90
2021/12/27 07:30:29;;;;;;;83.47;26.40;;;3.80;99.90;;;;;;4922667;29;20215;-90
2021/12/27 07:33:39;;;;;;;88.67;26.60;;;3.90;99.90;;;;;;4922910;29;20213;-89
2021/12/27 07:36:10;;;;;;;74.40;24.93;;;3.90;99.90;;;;;;4921366;29;20594;-89
2021/12/27 07:38:41;;;;;;;87.53;24.60;;;3.90;99.90;;;;;;4924873;29;20284;-91
2021/12/27 07:41:20;;;;;;;89.53;26.60;;;3.90;99.90;;;;;;4919386;29;20226;-91
2021/12/27 07:43:48;;;;;;;103.43;28.47;;;3.90;99.90;;;;;;4925431;29;20327;-90
2021/12/27 07:46:22;;;;;;;83.03;25.77;;;3.90;99.90;;;;;;4921439;29;20201;-88
2021/12/27 07:51:44;;;;;;;99.70;27.03;;;3.90;99.90;;;;;;4935799;29;20265;-91
2021/12/27 07:54:11;;;;;;;94.97;27.30;;;4.30;99.90;;;;;;4926515;29;20213;-90
2021/12/27 07:57:05;;;;;;;;;;;;;;;;;;;;;
2021/12/27 07:59:51;;;;;;;;;;;;;;;;;;;;;
2021/12/27 08:02:47;;;;;;;79.77;26.07;;;4.10;99.90;;;;;;4939231;29;20212;-89
2021/12/27 08:05:32;;;;;;;79.37;26.30;;;4.50;99.90;;;;;;4926366;29;20230;-91
2021/12/27 08:08:24;;;;;;;83.00;26.50;;;4.60;99.90;;;;;;4921999;29;20277;-90
2021/12/27 08:10:54;;;;;;;90.07;25.47;;;4.00;99.90;;;;;;4929063;29;20201;-89
2021/12/27 08:13:21;;;;;;;91.13;26.63;;;4.00;99.90;;;;;;4914913;29;20213;-88
2021/12/27 08:15:54;;;;;;;82.13;27.00;;;4.10;99.90;;;;;;4919732;29;20202;-90
2021/12/27 08:18:26;;;;;;;86.57;26.27;;;4.10;99.90;;;;;;4920436;29;20201;-89
2021/12/27 08:20:53;;;;;;;99.47;27.40;;;4.10;99.90;;;;;;4920049;29;20255;-91
2021/12/27 08:23:22;;;;;;;93.50;25.90;;;4.70;99.90;;;;;;4926057;29;20204;-84
2021/12/27 08:26:06;;;;;;;95.47;26.90;;;4.00;99.90;;;;;;4911096;29;20253;-91
2021/12/27 08:28:33;;;;;;;104.80;28.10;;;3.90;99.90;;;;;;4932235;29;20213;-89
2021/12/27 08:31:01;;;;;;;99.80;27.67;;;4.70;99.90;;;;;;4941758;29;20209;-91
2021/12/27 08:33:35;;;;;;;111.10;30.20;;;4.30;99.90;;;;;;4929940;29;20211;-91
2021/12/27 08:36:05;;;;;;;90.23;26.33;;;4.20;99.90;;;;;;4930875;29;20217;-91
2021/12/27 08:38:40;;;;;;;90.83;26.97;;;4.60;99.90;;;;;;4925679;29;20213;-90
2021/12/27 08:41:11;;;;;;;88.57;28.93;;;4.30;99.90;;;;;;4923078;29;20236;-89
2021/12/27 08:43:43;;;;;;;81.63;26.50;;;4.40;99.90;;;;;;4934849;29;20217;-93
2021/12/27 08:46:23;;;;;;;84.07;26.63;;;4.00;99.90;;;;;;4923299;29;20240;-91
2021/12/27 08:48:57;;;;;;;81.73;25.57;;;3.70;99.90;;;;;;4920946;29;20212;-92
2021/12/27 08:51:43;;;;;;;95.67;27.07;;;4.40;99.90;;;;;;4917846;29;20624;-91
2021/12/27 08:54:18;;;;;;;85.93;25.20;;;4.90;99.90;;;;;;4921280;29;20287;-92
2021/12/27 08:56:47;;;;;;;82.23;26.17;;;4.50;99.90;;;;;;4928434;29;20286;-93
2021/12/27 08:59:25;;;;;;;83.43;26.63;;;4.50;99.90;;;;;;4935145;29;20234;-92
2021/12/27 09:02:12;;;;;;;77.40;26.53;;;4.60;99.90;;;;;;4922094;29;20235;-90
2021/12/27 09:04:55;;;;;;;84.50;26.03;;;5.20;99.90;;;;;;4935630;29;20292;-92
2021/12/27 09:07:26;;;;;;;76.20;27.23;;;4.60;99.90;;;;;;4924391;29;20233;-91
2021/12/27 09:10:10;;;;;;;76.93;26.33;;;4.80;99.90;;;;;;4937193;29;20605;-91
2021/12/27 09:12:47;;;;;;;70.97;25.63;;;4.30;99.90;;;;;;4937363;29;20232;-91
2021/12/27 09:15:35;;;;;;;76.80;26.57;;;5.80;99.90;;;;;;4935542;29;20216;-94
2021/12/27 09:18:09;;;;;;;79.73;25.63;;;4.70;99.90;;;;;;4938213;29;20285;-91
2021/12/27 09:20:52;;;;;;;79.57;26.83;;;4.80;99.90;;;;;;4920779;29;20683;-93
2021/12/27 09:23:36;;;;;;;74.73;27.07;;;4.90;99.90;;;;;;4917558;29;20288;-93
2021/12/27 09:26:12;;;;;;;79.17;26.70;;;4.90;99.90;;;;;;4924001;29;20317;-91
2021/12/27 09:28:51;;;;;;;66.43;26.13;;;5.10;99.90;;;;;;4927520;29;20215;-91
2021/12/27 09:31:22;;;;;;;71.60;25.87;;;5.00;99.90;;;;;;4945955;29;20193;-90
2021/12/27 09:34:01;;;;;;;73.23;26.33;;;5.10;99.90;;;;;;4924099;29;20208;-90
2021/12/27 09:36:37;;;;;;;69.13;24.80;;;4.40;99.90;;;;;;4920393;29;20292;-92
2021/12/27 09:39:18;;;;;;;69.90;25.63;;;4.80;99.90;;;;;;4914496;29;20205;-91
2021/12/27 09:42:04;;;;;;;69.67;24.60;;;5.60;99.90;;;;;;4929915;29;20642;-90
2021/12/27 09:44:32;;;;;;;59.53;22.37;;;5.30;99.90;;;;;;4937742;29;20292;-90
2021/12/27 09:47:12;;;;;;;63.03;24.07;;;5.20;99.90;;;;;;4934476;29;20341;-91
2021/12/27 09:50:07;;;;;;;61.77;23.63;;;5.30;99.90;;;;;;4924676;29;20209;-93
2021/12/27 09:52:57;;;;;;;63.07;24.37;;;5.40;99.90;;;;;;4939552;29;20291;-91
2021/12/27 09:55:31;;;;;;;63.57;24.13;;;7.00;99.90;;;;;;4936733;29;20226;-90
2021/12/27 09:58:03;;;;;;;67.50;25.00;;;6.30;99.90;;;;;;4954721;29;20200;-91
2021/12/27 10:00:37;;;;;;;66.50;24.63;;;6.70;99.90;;;;;;4952165;29;20240;-92
2021/12/27 10:03:13;;;;;;;57.07;23.87;;;6.10;99.90;;;;;;4915006;29;20206;-86
2021/12/27 10:05:40;;;;;;;63.10;24.87;;;6.60;99.90;;;;;;4928222;29;20213;-87
2021/12/27 10:08:36;;;;;;;64.03;23.43;;;5.50;99.90;;;;;;4919496;29;20583;-88
2021/12/27 10:11:16;;;;;;;63.77;24.47;;;5.40;99.90;;;;;;4895815;29;20749;-91
2021/12/27 10:14:08;;;;;;;59.07;25.40;;;5.50;99.90;;;;;;4917801;29;20216;-90
2021/12/27 10:16:49;;;;;;;57.20;24.10;;;5.50;99.90;;;;;;4937299;29;20652;-93
2021/12/27 10:19:20;;;;;;;60.97;25.40;;;5.50;99.90;;;;;;4940231;29;20248;-90
2021/12/27 10:21:52;;;;;;;63.93;25.50;;;5.50;99.90;;;;;;4913144;29;20238;-91
2021/12/27 10:24:36;;;;;;;56.60;24.30;;;5.50;99.90;;;;;;4934402;29;20205;-88
2021/12/27 10:27:06;;;;;;;56.80;22.87;;;5.50;99.90;;;;;;4937861;29;20240;-88
2021/12/27 10:29:36;;;;;;;51.70;23.00;;;5.50;99.90;;;;;;4945365;29;20242;-90
2021/12/27 10:32:16;;;;;;;60.23;23.67;;;5.60;99.90;;;;;;4942409;29;20279;-88
2021/12/27 10:34:44;;;;;;;51.27;22.37;;;5.60;99.90;;;;;;4939308;29;20776;-90
2021/12/27 10:37:24;;;;;;;51.03;23.20;;;5.60;99.90;;;;;;4949182;29;20243;-91
2021/12/27 10:39:58;;;;;;;52.47;22.10;;;5.60;99.90;;;;;;4936070;29;20268;-90
2021/12/27 10:42:43;;;;;;;53.23;21.97;;;5.60;99.90;;;;;;4933720;29;20236;-90
2021/12/27 10:45:19;;;;;;;46.30;22.03;;;5.60;99.90;;;;;;4923213;29;20217;-88
2021/12/27 10:47:52;;;;;;;51.90;21.97;;;5.70;99.90;;;;;;4917342;29;20230;-89
2021/12/27 10:50:30;;;;;;;44.87;19.80;;;5.70;99.90;;;;;;4938650;29;20232;-88
2021/12/27 10:53:16;;;;;;;53.57;22.30;;;5.80;99.90;;;;;;4918821;29;20221;-88
2021/12/27 10:55:48;;;;;;;43.43;20.33;;;5.80;99.90;;;;;;4918948;29;20201;-88
2021/12/27 10:58:26;;;;;;;46.53;20.93;;;5.90;99.90;;;;;;4916628;29;20893;-88
2021/12/27 11:01:24;;;;;;;46.10;20.77;;;6.00;99.90;;;;;;4865293;29;20254;-87
2021/12/27 11:03:58;;;;;;;42.53;20.20;;;6.00;99.90;;;;;;4901208;29;20277;-88
2021/12/27 11:06:33;;;;;;;42.60;19.17;;;6.00;99.90;;;;;;4927559;29;20217;-88
2021/12/27 11:09:09;;;;;;;41.33;19.80;;;6.20;99.90;;;;;;4921793;29;20221;-89
2021/12/27 11:11:42;;;;;;;42.30;20.53;;;6.20;99.90;;;;;;4908550;29;20333;-89
2021/12/27 11:14:19;;;;;;;40.33;19.03;;;6.10;99.90;;;;;;4929023;29;20658;-89
2021/12/27 11:17:09;;;;;;;38.97;18.20;;;6.10;99.90;;;;;;4921483;29;20228;-90
2021/12/27 11:19:51;;;;;;;37.77;19.03;;;6.30;99.90;;;;;;4918083;29;20233;-91
2021/12/27 11:22:29;;;;;;;36.60;17.17;;;6.20;99.90;;;;;;4920629;29;20238;-89
2021/12/27 11:25:03;;;;;;;37.90;18.60;;;6.10;99.90;;;;;;4922208;29;20216;-89
2021/12/27 11:27:36;;;;;;;43.47;18.67;;;6.10;99.90;;;;;;4920123;29;20237;-91
2021/12/27 11:30:25;;;;;;;36.10;17.90;;;6.20;99.90;;;;;;4916564;29;20714;-87
2021/12/27 11:33:19;;;;;;;34.43;17.60;;;6.20;99.90;;;;;;4897059;29;20711;-89
2021/12/27 11:35:55;;;;;;;34.33;17.30;;;6.20;99.90;;;;;;4925104;29;20345;-90
2021/12/27 11:38:44;;;;;;;35.93;17.63;;;6.10;99.90;;;;;;4918521;29;20213;-89
2021/12/27 11:41:37;;;;;;;35.60;19.23;;;6.20;99.90;;;;;;4913960;29;20238;-89
2021/12/27 11:44:17;;;;;;;28.80;16.10;;;6.20;99.90;;;;;;4897341;29;20237;-88
2021/12/27 11:46:48;;;;;;;31.80;16.23;;;6.10;99.90;;;;;;4898783;29;20593;-89
2021/12/27 11:49:42;;;;;;;32.73;16.17;;;6.10;99.90;;;;;;4914384;29;20243;-89
2021/12/27 11:52:27;;;;;;;33.53;17.33;;;6.10;99.90;;;;;;4916376;29;20213;-90
2021/12/27 11:55:06;;;;;;;32.00;16.60;;;6.10;99.90;;;;;;4922989;29;20640;-90
2021/12/27 11:57:47;;;;;;;32.33;16.70;;;6.10;99.90;;;;;;4921760;29;20206;-88
2021/12/27 12:00:30;;;;;;;38.03;17.90;;;6.00;99.90;;;;;;4915674;29;20313;-90
2021/12/27 12:03:04;;;;;;;32.30;16.57;;;7.00;99.90;;;;;;4914979;29;20258;-90
2021/12/27 12:05:42;;;;;;;34.73;16.60;;;6.30;99.90;;;;;;4903522;29;20337;-90
2021/12/27 12:08:19;;;;;;;30.43;15.83;;;6.40;99.90;;;;;;4900415;29;20668;-90
2021/12/27 12:10:57;;;;;;;29.20;15.43;;;6.50;99.90;;;;;;4908734;29;20233;-89
2021/12/27 12:13:59;;;;;;;30.47;16.13;;;6.50;99.90;;;;;;4902468;29;20221;-89
2021/12/27 12:16:28;;;;;;;26.03;14.37;;;6.50;99.90;;;;;;4900712;29;20274;-89
2021/12/27 12:18:56;;;;;;;25.37;14.67;;;6.50;99.90;;;;;;4914546;29;20218;-88
2021/12/27 12:21:40;;;;;;;28.60;14.60;;;6.50;99.90;;;;;;4912156;29;20250;-88
2021/12/27 12:24:27;;;;;;;28.37;14.60;;;6.60;99.90;;;;;;4909879;29;20209;-89
2021/12/27 12:27:12;;;;;;;29.90;15.00;;;6.60;99.90;;;;;;4894952;29;20230;-89
2021/12/27 12:29:54;;;;;;;26.93;13.63;;;6.70;99.90;;;;;;4900368;29;20229;-89
2021/12/27 12:32:24;;;;;;;25.70;14.07;;;6.70;99.90;;;;;;4904459;29;20592;-90
2021/12/27 12:34:56;;;;;;;24.23;13.67;;;6.60;99.90;;;;;;4898881;29;20225;-89
2021/12/27 12:37:29;;;;;;;27.47;13.50;;;6.70;99.90;;;;;;4902097;29;20294;-89
2021/12/27 12:40:01;;;;;;;25.33;12.67;;;6.90;99.90;;;;;;4901476;29;20217;-88
2021/12/27 12:42:40;;;;;;;23.40;13.03;;;6.60;99.90;;;;;;4897262;29;20241;-90
2021/12/27 12:45:09;;;;;;;24.47;13.63;;;6.70;99.90;;;;;;4899107;29;20221;-89
2021/12/27 12:47:42;;;;;;;26.10;13.47;;;6.70;99.90;;;;;;4904091;29;20226;-90
2021/12/27 12:50:20;;;;;;;24.50;13.77;;;6.30;99.90;;;;;;4900050;29;20232;-89
2021/12/27 12:53:05;;;;;;;30.10;13.77;;;6.60;99.90;;;;;;4893552;29;20222;-88
2021/12/27 12:55:50;;;;;;;24.00;13.33;;;6.80;99.90;;;;;;4896249;29;20230;-89
2021/12/27 12:58:57;;;;;;;24.57;13.40;;;7.00;99.90;;;;;;4904307;28;20250;-91
2021/12/27 13:01:26;;;;;;;23.23;13.17;;;7.00;99.90;;;;;;4904432;29;20252;-85
2021/12/27 13:04:04;;;;;;;22.87;13.20;;;6.70;99.90;;;;;;4935440;29;20212;-92
2021/12/27 13:06:58;;;;;;;26.73;14.33;;;6.70;99.90;;;;;;4920347;29;20234;-91
2021/12/27 13:10:15;;;;;;;28.70;15.17;;;6.80;99.90;;;;;;4932405;29;20232;-93
2021/12/27 13:12:54;;;;;;;26.40;14.50;;;6.80;99.90;;;;;;4920420;29;20231;-89
2021/12/27 13:16:10;;;;;;;25.00;13.87;;;7.30;99.90;;;;;;4934339;29;20221;-94
2021/12/27 13:19:14;;;;;;;24.97;13.03;;;6.90;99.90;;;;;;4879333;29;20224;-90
2021/12/27 13:21:47;;;;;;;25.87;13.80;;;6.50;99.90;;;;;;4873906;29;20322;-91